createdAt,value
2019-01-19T00:00:58.296Z,10.83
2019-01-19T00:03:24.599Z,10.88
2019-01-19T00:05:50.983Z,10.90
2019-01-19T00:08:17.290Z,10.90
2019-01-19T00:10:43.598Z,10.92
2019-01-19T00:13:09.902Z,10.92
2019-01-19T00:15:36.221Z,10.88
2019-01-19T00:18:02.522Z,10.87
2019-01-19T00:20:28.831Z,10.87
2019-01-19T00:22:55.138Z,10.85
2019-01-19T00:25:21.453Z,10.84
2019-01-19T00:27:47.760Z,10.84
2019-01-19T00:30:14.071Z,10.83
2019-01-19T00:32:40.382Z,10.79
2019-01-19T00:35:06.687Z,10.65
2019-01-19T00:37:32.996Z,10.56
2019-01-19T00:39:59.300Z,10.47
2019-01-19T00:42:25.620Z,10.53
2019-01-19T00:44:51.923Z,10.58
2019-01-19T00:47:18.230Z,10.62
2019-01-19T00:49:44.534Z,10.68
2019-01-19T00:52:10.844Z,10.70
2019-01-19T00:54:37.155Z,10.66
2019-01-19T00:57:03.459Z,10.67
2019-01-19T00:59:29.766Z,10.65
2019-01-19T01:01:56.190Z,10.70
2019-01-19T01:04:22.495Z,10.71
2019-01-19T01:06:48.813Z,10.69
2019-01-19T01:09:15.121Z,10.70
2019-01-19T01:11:41.434Z,10.70
2019-01-19T01:14:07.734Z,10.69
2019-01-19T01:16:34.043Z,10.69
2019-01-19T01:19:00.345Z,10.60
2019-01-19T01:21:26.653Z,10.49
2019-01-19T01:23:52.965Z,10.35
2019-01-19T01:26:19.276Z,10.23
2019-01-19T01:28:45.576Z,10.32
2019-01-19T01:31:11.890Z,10.39
2019-01-19T01:33:38.212Z,10.46
2019-01-19T01:36:04.522Z,10.45
2019-01-19T01:38:30.830Z,10.49
2019-01-19T01:40:57.143Z,10.46
2019-01-19T01:43:23.448Z,10.50
2019-01-19T01:45:49.756Z,10.49
2019-01-19T01:48:16.059Z,10.50
2019-01-19T01:50:42.374Z,10.49
2019-01-19T01:53:08.677Z,10.46
2019-01-19T01:55:34.979Z,10.48
2019-01-19T01:58:01.283Z,10.48
2019-01-19T02:00:27.585Z,10.48
2019-01-19T02:02:53.895Z,10.46
2019-01-19T02:05:20.200Z,10.36
2019-01-19T02:07:46.511Z,10.27
2019-01-19T02:10:12.826Z,10.15
2019-01-19T02:12:39.136Z,10.13
2019-01-19T02:15:05.460Z,10.20
2019-01-19T02:17:31.768Z,10.24
2019-01-19T02:19:58.074Z,10.24
2019-01-19T02:22:24.396Z,10.31
2019-01-19T02:24:50.697Z,10.34
2019-01-19T02:27:17.015Z,10.35
2019-01-19T02:29:43.330Z,10.36
2019-01-19T02:32:09.648Z,10.35
2019-01-19T02:34:35.955Z,10.35
2019-01-19T02:37:02.275Z,10.33
2019-01-19T02:39:28.591Z,10.33
2019-01-19T02:41:54.908Z,10.35
2019-01-19T02:44:21.242Z,10.34
2019-01-19T02:46:47.536Z,10.33
2019-01-19T02:49:13.843Z,10.29
2019-01-19T02:51:40.152Z,10.21
2019-01-19T02:54:06.467Z,10.11
2019-01-19T02:56:32.779Z,9.99
2019-01-19T02:58:59.085Z,10.00
2019-01-19T03:01:25.397Z,10.06
2019-01-19T03:03:51.706Z,10.12
2019-01-19T03:06:18.008Z,10.16
2019-01-19T03:08:44.312Z,10.17
2019-01-19T03:11:10.625Z,10.20
2019-01-19T03:13:36.934Z,10.23
2019-01-19T03:16:03.236Z,10.22
2019-01-19T03:18:29.548Z,10.22
2019-01-19T03:20:55.862Z,10.23
2019-01-19T03:23:22.171Z,10.26
2019-01-19T03:25:48.498Z,10.25
2019-01-19T03:28:14.822Z,10.27
2019-01-19T03:30:41.133Z,10.24
2019-01-19T03:33:07.448Z,10.24
2019-01-19T03:35:33.755Z,10.20
2019-01-19T03:38:00.080Z,10.08
2019-01-19T03:40:26.384Z,9.97
2019-01-19T03:42:52.731Z,9.89
2019-01-19T03:45:19.033Z,9.90
2019-01-19T03:47:45.343Z,9.95
2019-01-19T03:50:11.642Z,10.05
2019-01-19T03:52:37.945Z,10.08
2019-01-19T03:55:04.253Z,10.13
2019-01-19T03:57:30.564Z,10.14
2019-01-19T03:59:56.874Z,10.17
2019-01-19T04:02:23.180Z,10.18
2019-01-19T04:04:49.484Z,10.17
2019-01-19T04:07:15.787Z,10.17
2019-01-19T04:09:42.087Z,10.19
2019-01-19T04:12:08.401Z,10.20
2019-01-19T04:14:34.713Z,10.21
2019-01-19T04:17:01.020Z,10.20
2019-01-19T04:19:27.332Z,10.20
2019-01-19T04:21:53.657Z,10.15
2019-01-19T04:24:19.963Z,10.04
2019-01-19T04:26:46.265Z,9.93
2019-01-19T04:29:12.564Z,9.87
2019-01-19T04:31:38.874Z,9.90
2019-01-19T04:34:05.175Z,9.96
2019-01-19T04:36:31.515Z,10.04
2019-01-19T04:38:57.825Z,10.05
2019-01-19T04:41:24.127Z,10.09
2019-01-19T04:43:50.516Z,10.11
2019-01-19T04:46:16.818Z,10.12
2019-01-19T04:48:43.122Z,10.13
2019-01-19T04:51:09.435Z,10.12
2019-01-19T04:53:35.740Z,10.11
2019-01-19T04:56:02.055Z,10.11
2019-01-19T04:58:28.364Z,10.10
2019-01-19T05:00:54.673Z,10.08
2019-01-19T05:03:20.985Z,10.10
2019-01-19T05:05:47.432Z,10.06
2019-01-19T05:08:13.663Z,9.98
2019-01-19T05:10:39.955Z,9.86
2019-01-19T05:13:06.268Z,9.72
2019-01-19T05:15:32.574Z,9.65
2019-01-19T05:17:58.874Z,9.70
2019-01-19T05:20:25.184Z,9.73
2019-01-19T05:22:51.511Z,9.80
2019-01-19T05:25:17.832Z,9.82
2019-01-19T05:27:44.125Z,9.78
2019-01-19T05:30:10.432Z,9.83
2019-01-19T05:32:36.740Z,9.82
2019-01-19T05:35:03.095Z,9.85
2019-01-19T05:37:29.412Z,9.84
2019-01-19T05:39:55.724Z,9.82
2019-01-19T05:42:22.037Z,9.84
2019-01-19T05:44:48.345Z,9.84
2019-01-19T05:47:14.649Z,9.82
2019-01-19T05:49:40.957Z,9.82
2019-01-19T05:52:07.261Z,9.80
2019-01-19T05:54:33.584Z,9.72
2019-01-19T05:56:59.899Z,9.60
2019-01-19T05:59:26.241Z,9.48
2019-01-19T06:01:52.552Z,9.47
2019-01-19T06:04:18.859Z,9.52
2019-01-19T06:06:46.867Z,9.60
2019-01-19T06:09:11.485Z,9.67
2019-01-19T06:11:37.802Z,9.70
2019-01-19T06:14:04.105Z,9.73
2019-01-19T06:16:30.485Z,9.76
2019-01-19T06:18:56.794Z,9.79
2019-01-19T06:21:23.554Z,9.81
2019-01-19T06:23:49.443Z,9.82
2019-01-19T06:26:15.862Z,9.83
2019-01-19T06:28:42.132Z,9.85
2019-01-19T06:31:08.482Z,9.88
2019-01-19T06:33:34.790Z,9.90
2019-01-19T06:36:01.105Z,9.92
2019-01-19T06:38:27.394Z,9.90
2019-01-19T06:40:53.730Z,9.78
2019-01-19T06:43:20.037Z,9.74
2019-01-19T06:45:46.359Z,9.58
2019-01-19T06:48:12.670Z,9.63
2019-01-19T06:50:38.977Z,9.72
2019-01-19T06:53:05.292Z,9.79
2019-01-19T06:55:31.599Z,9.87
2019-01-19T06:57:57.901Z,9.94
2019-01-19T07:00:24.202Z,9.99
2019-01-19T07:02:50.515Z,10.04
2019-01-19T07:05:16.825Z,10.07
2019-01-19T07:07:43.128Z,10.11
2019-01-19T07:10:09.450Z,10.15
2019-01-19T07:12:35.753Z,10.18
2019-01-19T07:15:02.068Z,10.22
2019-01-19T07:17:28.370Z,10.20
2019-01-19T07:19:54.786Z,10.80
2019-01-19T07:22:21.093Z,11.35
2019-01-19T07:24:47.402Z,11.71
2019-01-19T07:27:13.712Z,11.72
2019-01-19T07:29:40.109Z,11.49
2019-01-19T07:32:06.421Z,11.23
2019-01-19T07:34:32.731Z,10.95
2019-01-19T07:36:59.048Z,10.75
2019-01-19T07:39:25.365Z,10.67
2019-01-19T07:41:51.668Z,10.70
2019-01-19T07:44:17.979Z,10.77
2019-01-19T07:46:44.292Z,10.83
2019-01-19T07:49:10.605Z,10.86
2019-01-19T07:51:36.907Z,10.87
2019-01-19T07:54:03.227Z,10.87
2019-01-19T07:56:29.531Z,10.87
2019-01-19T07:58:55.827Z,10.89
2019-01-19T08:01:22.135Z,10.89
2019-01-19T08:03:48.480Z,10.89
2019-01-19T08:06:14.756Z,10.90
2019-01-19T08:08:41.069Z,10.92
2019-01-19T08:11:07.377Z,10.92
2019-01-19T08:13:33.682Z,10.93
2019-01-19T08:16:00.015Z,10.95
2019-01-19T08:18:26.328Z,10.91
2019-01-19T08:20:52.639Z,10.81
2019-01-19T08:23:18.948Z,10.75
2019-01-19T08:25:45.258Z,10.75
2019-01-19T08:28:11.569Z,10.84
2019-01-19T08:30:37.879Z,10.93
2019-01-19T08:33:04.189Z,10.99
2019-01-19T08:35:30.499Z,11.07
2019-01-19T08:37:56.804Z,11.10
2019-01-19T08:40:23.118Z,11.17
2019-01-19T08:42:49.430Z,11.19
2019-01-19T08:45:15.736Z,11.23
2019-01-19T08:47:42.041Z,11.26
2019-01-19T08:50:08.354Z,11.29
2019-01-19T08:52:34.663Z,11.33
2019-01-19T08:55:00.971Z,11.39
2019-01-19T08:57:27.274Z,11.45
2019-01-19T08:59:53.583Z,11.49
2019-01-19T09:02:19.896Z,11.50
2019-01-19T09:04:46.206Z,11.43
2019-01-19T09:07:12.517Z,11.38
2019-01-19T09:09:38.824Z,11.38
2019-01-19T09:12:05.134Z,11.53
2019-01-19T09:14:31.449Z,11.66
2019-01-19T09:16:58.222Z,11.78
2019-01-19T09:19:24.080Z,11.87
2019-01-19T09:21:50.385Z,11.90
2019-01-19T09:24:16.701Z,11.93
2019-01-19T09:26:42.995Z,11.99
2019-01-19T09:29:09.321Z,12.10
2019-01-19T09:31:35.660Z,12.14
2019-01-19T09:34:01.938Z,12.20
2019-01-19T09:36:28.270Z,12.18
2019-01-19T09:38:56.429Z,12.30
2019-01-19T09:41:23.488Z,12.34
2019-01-19T09:43:50.186Z,12.55
2019-01-19T09:46:16.442Z,12.95
2019-01-19T09:48:42.754Z,13.28
2019-01-19T09:51:09.298Z,13.66
2019-01-19T09:53:35.611Z,13.88
2019-01-19T09:56:01.945Z,13.89
2019-01-19T09:58:28.506Z,13.92
2019-01-19T10:00:54.812Z,14.17
2019-01-19T10:03:21.115Z,14.44
2019-01-19T10:05:47.435Z,14.49
2019-01-19T10:08:13.735Z,14.47
2019-01-19T10:10:40.046Z,14.32
2019-01-19T10:13:06.359Z,14.13
2019-01-19T10:15:32.685Z,13.98
2019-01-19T10:17:58.991Z,13.97
2019-01-19T10:20:25.304Z,14.01
2019-01-19T10:22:51.618Z,14.24
2019-01-19T10:25:17.928Z,14.72
2019-01-19T10:27:44.242Z,15.13
2019-01-19T10:30:10.559Z,15.21
2019-01-19T10:32:36.865Z,15.19
2019-01-19T10:35:03.185Z,15.20
2019-01-19T10:37:29.503Z,15.13
2019-01-19T10:39:55.807Z,14.98
2019-01-19T10:42:22.382Z,14.80
2019-01-19T10:44:48.721Z,14.66
2019-01-19T10:47:15.028Z,14.55
2019-01-19T10:49:41.333Z,14.46
2019-01-19T10:52:07.706Z,14.38
2019-01-19T10:54:34.020Z,14.29
2019-01-19T10:57:00.325Z,14.23
2019-01-19T10:59:26.658Z,14.20
2019-01-19T11:01:52.972Z,14.18
2019-01-19T11:04:19.312Z,14.17
2019-01-19T11:06:45.647Z,14.10
2019-01-19T11:09:11.961Z,14.08
2019-01-19T11:11:38.307Z,14.04
2019-01-19T11:14:04.648Z,14.02
2019-01-19T11:16:31.064Z,13.95
2019-01-19T11:18:57.289Z,13.84
2019-01-19T11:21:23.602Z,13.78
2019-01-19T11:23:49.984Z,13.86
2019-01-19T11:26:16.306Z,13.97
2019-01-19T11:28:42.626Z,14.04
2019-01-19T11:31:08.945Z,14.07
2019-01-19T11:33:35.263Z,14.08
2019-01-19T11:36:01.662Z,14.09
2019-01-19T11:38:28.041Z,14.07
2019-01-19T11:40:54.358Z,14.07
2019-01-19T11:43:20.676Z,14.03
2019-01-19T11:45:46.982Z,14.02
2019-01-19T11:48:13.298Z,14.01
2019-01-19T11:50:39.609Z,14.00
2019-01-19T11:53:05.917Z,14.01
2019-01-19T11:55:32.244Z,14.01
2019-01-19T11:57:58.552Z,14.02
2019-01-19T12:00:24.870Z,14.02
2019-01-19T12:02:51.323Z,14.02
2019-01-19T12:05:17.636Z,14.02
2019-01-19T12:07:43.945Z,13.96
2019-01-19T12:10:10.253Z,13.97
2019-01-19T12:12:36.712Z,13.88
2019-01-19T12:15:03.029Z,13.94
2019-01-19T12:17:32.285Z,13.94
2019-01-19T12:19:58.625Z,14.01
2019-01-19T12:22:24.946Z,13.98
2019-01-19T12:24:51.256Z,13.92
2019-01-19T12:27:17.567Z,13.92
2019-01-19T12:29:43.872Z,14.00
2019-01-19T12:32:12.230Z,14.09
2019-01-19T12:34:36.554Z,14.15
2019-01-19T12:37:02.910Z,14.18
2019-01-19T12:39:29.224Z,14.17
2019-01-19T12:41:55.530Z,14.16
2019-01-19T12:44:22.894Z,14.18
2019-01-19T12:46:51.657Z,14.10
2019-01-19T12:49:19.606Z,14.19
2019-01-19T12:51:46.041Z,14.20
2019-01-19T12:54:12.494Z,14.20
2019-01-19T12:56:38.775Z,14.19
2019-01-19T12:59:05.086Z,14.19
2019-01-19T13:01:31.430Z,14.30
2019-01-19T13:03:57.715Z,14.31
2019-01-19T13:06:24.023Z,14.22
2019-01-19T13:08:50.372Z,14.05
2019-01-19T13:11:17.364Z,13.90
2019-01-19T13:13:42.960Z,13.78
2019-01-19T13:16:09.268Z,13.69
2019-01-19T13:18:35.581Z,13.59
2019-01-19T13:21:01.894Z,13.56
2019-01-19T13:23:28.204Z,13.51
2019-01-19T13:25:54.529Z,13.47
2019-01-19T13:28:20.866Z,13.42
2019-01-19T13:30:47.169Z,13.38
2019-01-19T13:33:13.482Z,13.36
2019-01-19T13:35:39.791Z,13.33
2019-01-19T13:38:06.107Z,13.29
2019-01-19T13:40:32.426Z,13.27
2019-01-19T13:42:58.735Z,13.14
2019-01-19T13:45:25.062Z,13.22
2019-01-19T13:47:51.543Z,13.21
2019-01-19T13:50:17.806Z,13.19
2019-01-19T13:52:44.229Z,13.17
2019-01-19T13:55:10.518Z,13.15
2019-01-19T13:57:36.800Z,13.15
2019-01-19T14:00:03.124Z,13.16
2019-01-19T14:02:29.540Z,13.16
2019-01-19T14:04:55.844Z,13.16
2019-01-19T14:07:22.161Z,13.15
2019-01-19T14:09:48.682Z,13.13
2019-01-19T14:12:14.796Z,13.11
2019-01-19T14:14:41.106Z,13.10
2019-01-19T14:17:07.417Z,13.07
2019-01-19T14:19:33.724Z,13.05
2019-01-19T14:22:00.037Z,13.04
2019-01-19T14:24:26.645Z,13.01
2019-01-19T14:26:52.953Z,12.99
2019-01-19T14:29:19.264Z,12.97
2019-01-19T14:31:45.571Z,12.95
2019-01-19T14:34:11.890Z,12.94
2019-01-19T14:36:38.390Z,12.92
2019-01-19T14:39:04.723Z,12.90
2019-01-19T14:41:31.088Z,12.87
2019-01-19T14:43:57.388Z,12.85
2019-01-19T14:46:23.769Z,12.82
2019-01-19T14:48:50.121Z,12.80
2019-01-19T14:51:16.763Z,12.76
2019-01-19T14:53:43.089Z,12.73
2019-01-19T14:56:09.396Z,12.69
2019-01-19T14:58:35.716Z,12.65
2019-01-19T15:01:02.023Z,12.62
2019-01-19T15:03:28.334Z,12.59
2019-01-19T15:05:54.641Z,12.57
2019-01-19T15:08:20.957Z,12.53
2019-01-19T15:10:47.280Z,12.48
2019-01-19T15:13:13.705Z,12.44
2019-01-19T15:15:40.983Z,12.41
2019-01-19T15:18:06.599Z,12.37
2019-01-19T15:20:32.824Z,12.34
2019-01-19T15:22:59.141Z,12.31
2019-01-19T15:25:26.937Z,12.27
2019-01-19T15:27:52.445Z,12.23
2019-01-19T15:30:19.331Z,12.20
2019-01-19T15:32:45.711Z,12.18
2019-01-19T15:35:12.104Z,12.16
2019-01-19T15:37:40.319Z,12.13
2019-01-19T15:40:05.209Z,12.08
2019-01-19T15:42:31.605Z,12.07
2019-01-19T15:44:57.877Z,12.03
2019-01-19T15:47:24.239Z,12.00
2019-01-19T15:49:50.772Z,11.96
2019-01-19T15:52:27.336Z,11.92
2019-01-19T15:54:53.644Z,11.90
2019-01-19T15:57:19.987Z,11.89
2019-01-19T15:59:46.307Z,11.87
2019-01-19T16:02:12.614Z,11.86
2019-01-19T16:04:38.925Z,11.84
2019-01-19T16:07:05.236Z,11.82
2019-01-19T16:09:31.590Z,11.80
2019-01-19T16:11:59.230Z,11.77
2019-01-19T16:14:24.198Z,11.77
2019-01-19T16:16:51.537Z,11.72
2019-01-19T16:19:16.827Z,11.71
2019-01-19T16:21:43.140Z,11.69
2019-01-19T16:24:09.441Z,11.68
2019-01-19T16:26:35.796Z,11.66
2019-01-19T16:29:02.110Z,11.61
2019-01-19T16:31:28.436Z,11.58
2019-01-19T16:33:54.749Z,11.53
2019-01-19T16:36:21.055Z,11.55
2019-01-19T16:38:47.367Z,11.52
2019-01-19T16:41:13.679Z,11.49
2019-01-19T16:43:39.997Z,11.46
2019-01-19T16:46:06.305Z,11.44
2019-01-19T16:48:32.706Z,11.43
2019-01-19T16:50:59.009Z,11.40
2019-01-19T16:53:25.325Z,11.38
2019-01-19T16:55:51.673Z,11.36
2019-01-19T16:58:17.949Z,11.34
2019-01-19T17:00:44.419Z,11.33
2019-01-19T17:03:11.843Z,11.32
2019-01-19T17:05:37.098Z,11.27
2019-01-19T17:08:03.439Z,11.28
2019-01-19T17:10:29.736Z,11.25
2019-01-19T17:12:56.131Z,11.22
2019-01-19T17:15:22.453Z,11.21
2019-01-19T17:17:48.901Z,11.22
2019-01-19T17:20:15.221Z,11.23
2019-01-19T17:22:41.535Z,11.22
2019-01-19T17:25:07.842Z,11.21
2019-01-19T17:27:34.164Z,11.19
2019-01-19T17:30:00.486Z,11.20
2019-01-19T17:32:26.797Z,11.19
2019-01-19T17:34:53.118Z,11.17
2019-01-19T17:37:19.433Z,11.16
2019-01-19T17:39:45.745Z,11.15
2019-01-19T17:42:14.551Z,11.14
2019-01-19T17:44:40.866Z,11.12
2019-01-19T17:47:07.189Z,11.12
2019-01-19T17:49:33.526Z,11.10
2019-01-19T17:51:59.819Z,11.06
2019-01-19T17:54:26.131Z,11.05
2019-01-19T17:56:52.441Z,11.04
2019-01-19T17:59:18.756Z,11.02
2019-01-19T18:01:45.065Z,11.00
2019-01-19T18:04:11.376Z,10.98
2019-01-19T18:06:37.690Z,10.96
2019-01-19T18:09:04.003Z,10.95
2019-01-19T18:11:30.345Z,10.95
2019-01-19T18:13:56.728Z,10.94
2019-01-19T18:16:23.140Z,10.93
2019-01-19T18:18:49.416Z,10.91
2019-01-19T18:21:15.950Z,10.90
2019-01-19T18:23:42.258Z,10.90
2019-01-19T18:26:08.571Z,10.89
2019-01-19T18:28:34.908Z,10.86
2019-01-19T18:31:01.185Z,10.86
2019-01-19T18:33:27.525Z,10.85
2019-01-19T18:35:53.831Z,10.84
2019-01-19T18:38:20.262Z,10.82
2019-01-19T18:40:46.591Z,10.78
2019-01-19T18:43:12.915Z,10.79
2019-01-19T18:45:39.226Z,10.76
2019-01-19T18:48:05.672Z,10.75
2019-01-19T18:50:32.089Z,10.75
2019-01-19T18:52:58.492Z,10.73
2019-01-19T18:55:24.803Z,10.70
2019-01-19T18:57:57.288Z,10.61
2019-01-19T19:00:23.656Z,10.70
2019-01-19T19:02:49.909Z,10.69
2019-01-19T19:05:18.096Z,10.67
2019-01-19T19:07:43.461Z,10.65
2019-01-19T19:10:09.792Z,10.60
2019-01-19T19:12:36.084Z,10.63
2019-01-19T19:15:02.416Z,10.62
2019-01-19T19:17:28.723Z,10.60
2019-01-19T19:19:55.085Z,10.61
2019-01-19T19:22:21.392Z,10.63
2019-01-19T19:24:47.701Z,10.66
2019-01-19T19:27:14.008Z,10.48
2019-01-19T19:29:40.334Z,10.26
2019-01-19T19:32:06.645Z,10.38
2019-01-19T19:34:32.953Z,10.63
2019-01-19T19:36:59.271Z,10.84
2019-01-19T19:39:25.578Z,10.88
2019-01-19T19:41:51.944Z,11.02
2019-01-19T19:44:18.250Z,10.98
2019-01-19T19:46:44.561Z,10.91
2019-01-19T19:49:10.879Z,10.82
2019-01-19T19:51:37.190Z,10.83
2019-01-19T19:54:03.546Z,10.84
2019-01-19T19:56:29.856Z,10.99
2019-01-19T19:58:56.174Z,11.10
2019-01-19T20:01:22.541Z,11.03
2019-01-19T20:03:48.910Z,11.02
2019-01-19T20:06:15.229Z,10.96
2019-01-19T20:08:41.570Z,10.95
2019-01-19T20:11:07.852Z,10.95
2019-01-19T20:13:35.217Z,10.91
2019-01-19T20:16:01.549Z,10.92
2019-01-19T20:18:27.866Z,10.89
2019-01-19T20:20:54.178Z,10.87
2019-01-19T20:23:20.486Z,10.79
2019-01-19T20:25:46.800Z,10.83
2019-01-19T20:28:13.104Z,10.72
2019-01-19T20:30:39.412Z,10.66
2019-01-19T20:33:05.722Z,10.58
2019-01-19T20:35:32.029Z,10.50
2019-01-19T20:37:58.346Z,10.55
2019-01-19T20:40:24.801Z,10.59
2019-01-19T20:42:50.967Z,10.62
2019-01-19T20:45:17.277Z,10.59
2019-01-19T20:47:43.589Z,10.64
2019-01-19T20:50:09.907Z,10.64
2019-01-19T20:52:36.211Z,10.64
2019-01-19T20:55:04.937Z,10.66
2019-01-19T20:57:28.843Z,10.66
2019-01-19T20:59:55.147Z,10.65
2019-01-19T21:02:21.462Z,10.65
2019-01-19T21:04:48.060Z,10.64
2019-01-19T21:07:14.373Z,10.61
2019-01-19T21:09:40.681Z,10.63
2019-01-19T21:12:07.004Z,10.63
2019-01-19T21:14:33.316Z,10.57
2019-01-19T21:16:59.971Z,10.50
2019-01-19T21:19:26.280Z,10.42
2019-01-19T21:21:52.593Z,10.41
2019-01-19T21:24:18.931Z,10.49
2019-01-19T21:26:45.240Z,10.52
2019-01-19T21:29:11.547Z,10.55
2019-01-19T21:31:37.867Z,10.56
2019-01-19T21:34:04.208Z,10.59
2019-01-19T21:36:30.494Z,10.61
2019-01-19T21:38:56.821Z,10.64
2019-01-19T21:41:23.132Z,10.65
2019-01-19T21:43:49.441Z,10.65
2019-01-19T21:46:15.757Z,10.66
2019-01-19T21:48:42.069Z,10.65
2019-01-19T21:51:08.388Z,10.65
2019-01-19T21:53:34.704Z,10.66
2019-01-19T21:56:01.024Z,10.67
2019-01-19T21:58:27.327Z,10.68
2019-01-19T22:00:53.661Z,10.58
2019-01-19T22:03:20.024Z,10.51
2019-01-19T22:05:49.872Z,10.46
2019-01-19T22:08:12.595Z,10.43
2019-01-19T22:10:38.906Z,10.52
2019-01-19T22:13:05.214Z,10.54
2019-01-19T22:15:31.525Z,10.56
2019-01-19T22:17:57.832Z,10.59
2019-01-19T22:20:24.140Z,10.56
2019-01-19T22:22:50.471Z,10.60
2019-01-19T22:25:16.779Z,10.60
2019-01-19T22:27:43.095Z,10.60
2019-01-19T22:30:09.414Z,10.64
2019-01-19T22:32:35.753Z,10.63
2019-01-19T22:35:02.078Z,10.63
2019-01-19T22:37:28.397Z,10.62
2019-01-19T22:39:54.809Z,10.61
2019-01-19T22:42:21.143Z,10.63
2019-01-19T22:44:47.459Z,10.60
2019-01-19T22:47:13.767Z,10.53
2019-01-19T22:49:40.080Z,10.45
2019-01-19T22:52:06.383Z,10.38
2019-01-19T22:54:32.718Z,10.37
2019-01-19T22:56:59.039Z,10.40
2019-01-19T22:59:25.347Z,10.49
2019-01-19T23:01:51.659Z,10.50
2019-01-19T23:04:17.976Z,10.49
2019-01-19T23:06:44.291Z,10.51
2019-01-19T23:09:10.600Z,10.52
2019-01-19T23:11:36.921Z,10.53
2019-01-19T23:14:03.228Z,10.54
2019-01-19T23:16:29.541Z,10.53
2019-01-19T23:18:55.866Z,10.55
2019-01-19T23:21:22.180Z,10.55
2019-01-19T23:23:48.489Z,10.56
2019-01-19T23:26:14.799Z,10.54
2019-01-19T23:28:41.105Z,10.55
2019-01-19T23:31:07.415Z,10.53
2019-01-19T23:33:33.719Z,10.46
2019-01-19T23:36:00.042Z,10.38
2019-01-19T23:38:26.350Z,10.34
2019-01-19T23:40:52.656Z,10.33
2019-01-19T23:43:18.963Z,10.43
2019-01-19T23:45:45.277Z,10.48
2019-01-19T23:48:11.579Z,10.50
2019-01-19T23:50:37.901Z,10.53
2019-01-19T23:53:04.213Z,10.56
2019-01-19T23:55:30.515Z,10.58
2019-01-19T23:57:56.837Z,10.59
